Time;durP1;ratioP1;P1;durP2;ratioP2;P2;SDS_P1;SDS_P2;PMS_P1;PMS_P2;Temp;Humidity;BMP_temperature;BMP_pressure;BME280_temperature;BME280_humidity;BME280_pressure;Samples;Min_cycle;Max_cycle;Signal;HPM_P1;HPM_P2
2023/03/20 00:02:02;;;;;;;17.70;10.05;;;7.70;99.90;;;;;;5064682;28;20687;-42
2023/03/20 00:04:29;;;;;;;19.83;9.55;;;8.00;99.90;;;;;;5065040;28;20097;-41
2023/03/20 00:06:55;;;;;;;19.05;9.98;;;7.50;99.90;;;;;;5065113;28;20123;-41
2023/03/20 00:09:21;;;;;;;23.42;9.93;;;7.60;99.90;;;;;;5047343;28;20441;-41
2023/03/20 00:11:49;;;;;;;19.60;10.20;;;7.60;99.90;;;;;;5065191;28;20046;-42
2023/03/20 00:14:17;;;;;;;20.50;10.25;;;8.00;99.90;;;;;;5066305;28;20051;-41
2023/03/20 00:16:45;;;;;;;18.65;10.02;;;7.60;99.90;;;;;;5065960;28;20048;-42
2023/03/20 00:19:16;;;;;;;20.58;10.40;;;7.50;99.90;;;;;;5064518;28;20697;-41
2023/03/20 00:21:42;;;;;;;16.00;10.48;;;8.60;99.90;;;;;;5065187;28;20044;-42
2023/03/20 00:24:08;;;;;;;20.67;10.85;;;7.50;99.90;;;;;;5064944;28;20044;-41
2023/03/20 00:26:37;;;;;;;20.38;9.85;;;8.90;99.90;;;;;;5066405;28;20067;-41
2023/03/20 00:29:04;;;;;;;15.35;9.27;;;8.80;99.90;;;;;;5068840;28;20032;-42
2023/03/20 00:31:30;;;;;;;22.02;10.13;;;8.10;99.90;;;;;;5068431;28;20390;-41
2023/03/20 00:34:02;;;;;;;18.27;10.40;;;7.90;99.90;;;;;;5069418;28;20047;-41
2023/03/20 00:36:28;;;;;;;18.63;9.43;;;8.80;99.90;;;;;;5068379;28;20056;-41
2023/03/20 00:38:56;;;;;;;21.15;9.88;;;7.50;99.90;;;;;;5068722;28;20179;-42
2023/03/20 00:41:37;;;;;;;19.52;8.55;;;8.70;99.90;;;;;;5050655;28;20579;-42
2023/03/20 00:44:26;;;;;;;16.67;9.05;;;8.30;99.90;;;;;;5068432;28;20076;-41
2023/03/20 00:47:20;;;;;;;18.10;9.20;;;7.50;99.90;;;;;;5068918;28;20051;-41
2023/03/20 00:49:49;;;;;;;13.38;7.53;;;8.10;99.90;;;;;;5065304;28;20494;-41
2023/03/20 00:52:17;;;;;;;17.73;8.60;;;7.50;99.90;;;;;;5068907;28;20041;-41
2023/03/20 00:54:42;;;;;;;15.02;8.63;;;7.80;99.90;;;;;;5068583;28;20122;-41
2023/03/20 00:57:15;;;;;;;15.88;8.07;;;7.40;99.90;;;;;;5068600;28;20056;-40
2023/03/20 00:59:48;;;;;;;14.43;8.18;;;8.60;99.90;;;;;;5068176;28;20492;-41
2023/03/20 01:02:15;;;;;;;14.98;8.27;;;8.20;99.90;;;;;;5068327;28;20206;-41
2023/03/20 01:04:41;;;;;;;15.30;7.43;;;7.20;99.90;;;;;;5068815;28;20162;-41
2023/03/20 01:07:12;;;;;;;15.38;7.80;;;8.10;99.90;;;;;;5068716;28;20048;-40
2023/03/20 01:09:38;;;;;;;15.68;8.60;;;7.60;99.90;;;;;;5068669;28;20090;-42
2023/03/20 01:12:06;;;;;;;19.08;7.97;;;7.30;99.90;;;;;;5068979;28;20052;-40
2023/03/20 01:14:32;;;;;;;14.48;8.73;;;7.40;99.90;;;;;;5067762;28;20486;-40
2023/03/20 01:16:58;;;;;;;13.98;8.18;;;7.60;99.90;;;;;;5067760;28;20491;-40
2023/03/20 01:19:24;;;;;;;18.02;8.55;;;8.70;99.90;;;;;;5067911;28;20052;-41
2023/03/20 01:21:50;;;;;;;18.02;9.52;;;7.20;99.90;;;;;;5067874;28;20058;-40
2023/03/20 01:24:16;;;;;;;14.18;7.97;;;8.10;99.90;;;;;;5067723;28;20044;-41
2023/03/20 01:26:43;;;;;;;15.95;8.70;;;7.40;99.90;;;;;;5067709;28;20036;-40
2023/03/20 01:29:26;;;;;;;16.75;8.30;;;7.40;99.90;;;;;;5067830;28;20048;-40
2023/03/20 01:31:52;;;;;;;14.05;6.90;;;8.90;99.90;;;;;;5049613;28;20044;-41
2023/03/20 01:34:19;;;;;;;15.52;8.13;;;8.20;99.90;;;;;;5068164;28;20052;-40
2023/03/20 01:36:52;;;;;;;15.48;7.97;;;7.40;99.90;;;;;;5067626;28;20052;-40
2023/03/20 01:39:20;;;;;;;19.42;7.90;;;7.30;99.90;;;;;;5066016;28;20767;-40
2023/03/20 01:41:47;;;;;;;16.75;7.20;;;7.40;99.90;;;;;;5067039;28;20105;-42
2023/03/20 01:44:28;;;;;;;14.60;7.47;;;8.70;99.90;;;;;;5067366;28;20045;-41
2023/03/20 01:46:54;;;;;;;12.15;6.65;;;7.30;99.90;;;;;;5067153;28;20068;-41
2023/03/20 01:49:20;;;;;;;15.10;6.32;;;8.20;99.90;;;;;;5067667;28;20044;-40
2023/03/20 01:51:47;;;;;;;17.05;7.82;;;7.30;99.90;;;;;;5067759;28;20040;-40
2023/03/20 01:54:49;;;;;;;14.45;6.35;;;8.40;99.90;;;;;;5067453;28;20068;-41
2023/03/20 01:57:19;;;;;;;14.52;6.43;;;7.40;99.90;;;;;;5022742;28;20363;-40
2023/03/20 01:59:45;;;;;;;13.27;6.43;;;7.40;99.90;;;;;;5067942;28;20128;-40
2023/03/20 02:02:14;;;;;;;12.18;6.13;;;8.30;99.90;;;;;;5067700;28;20577;-40
2023/03/20 02:04:44;;;;;;;12.45;6.43;;;7.60;99.90;;;;;;5049159;28;20098;-40
2023/03/20 02:07:15;;;;;;;16.92;7.32;;;8.70;99.90;;;;;;5067760;28;20048;-41
2023/03/20 02:09:41;;;;;;;15.68;6.90;;;7.80;99.90;;;;;;5067270;28;20041;-41
2023/03/20 02:12:07;;;;;;;19.75;7.78;;;8.10;99.90;;;;;;5066922;28;20127;-40
2023/03/20 02:14:34;;;;;;;15.23;7.45;;;8.30;99.90;;;;;;5048683;28;20835;-40
2023/03/20 02:17:04;;;;;;;14.82;6.78;;;7.60;99.90;;;;;;5066288;28;20080;-40
2023/03/20 02:19:43;;;;;;;18.65;7.38;;;7.20;99.90;;;;;;5066897;28;20137;-40
2023/03/20 02:22:42;;;;;;;15.38;7.15;;;7.20;99.90;;;;;;5067031;28;20775;-40
2023/03/20 02:25:33;;;;;;;20.10;7.90;;;7.30;99.90;;;;;;5067973;28;20071;-40
2023/03/20 02:28:13;;;;;;;16.20;7.22;;;7.20;99.90;;;;;;5067417;28;20126;-40
2023/03/20 02:31:00;;;;;;;19.95;7.78;;;7.20;99.90;;;;;;5067320;28;20055;-40
2023/03/20 02:33:35;;;;;;;21.13;8.15;;;7.20;99.90;;;;;;5066692;28;20697;-41
2023/03/20 02:36:16;;;;;;;14.60;6.85;;;7.20;99.90;;;;;;5066523;28;20390;-41
2023/03/20 02:38:53;;;;;;;17.10;6.65;;;7.20;99.90;;;;;;5065677;28;20056;-41
2023/03/20 02:41:32;;;;;;;15.60;6.90;;;7.20;99.90;;;;;;5066736;28;20049;-41
2023/03/20 02:44:18;;;;;;;18.13;8.55;;;7.40;99.90;;;;;;5066507;28;20111;-40
2023/03/20 02:47:00;;;;;;;18.02;7.40;;;7.20;99.90;;;;;;5066476;28;20405;-41
2023/03/20 02:50:02;;;;;;;17.13;8.13;;;7.20;99.90;;;;;;5048724;28;20044;-42
2023/03/20 02:52:49;;;;;;;16.27;8.43;;;7.20;99.90;;;;;;5067111;28;20035;-41
2023/03/20 02:55:34;;;;;;;26.42;10.23;;;7.20;99.90;;;;;;5066471;28;20056;-41
2023/03/20 02:58:27;;;;;;;24.85;10.73;;;7.00;99.90;;;;;;5066310;28;20436;-41
2023/03/20 03:01:10;;;;;;;25.10;10.60;;;7.80;99.90;;;;;;5066778;28;20041;-40
2023/03/20 03:03:52;;;;;;;22.85;11.10;;;7.60;99.90;;;;;;5066780;28;20052;-40
2023/03/20 03:06:18;;;;;;;23.13;11.85;;;7.20;99.90;;;;;;5066333;28;20040;-41
2023/03/20 03:08:51;;;;;;;21.90;11.43;;;7.90;99.90;;;;;;5066431;28;20045;-41
2023/03/20 03:11:17;;;;;;;22.20;11.27;;;8.20;99.90;;;;;;5066431;28;20483;-41
2023/03/20 03:13:50;;;;;;;20.70;10.70;;;7.00;99.90;;;;;;5066293;28;20049;-41
2023/03/20 03:16:39;;;;;;;23.58;10.90;;;7.40;99.90;;;;;;5066151;28;20513;-40
2023/03/20 03:19:08;;;;;;;22.42;12.40;;;7.20;99.90;;;;;;5066106;28;20079;-40
2023/03/20 03:21:38;;;;;;;19.67;10.90;;;8.60;99.90;;;;;;5066381;28;20048;-41
2023/03/20 03:24:04;;;;;;;24.38;11.43;;;7.10;99.90;;;;;;5066327;28;20076;-40
2023/03/20 03:26:36;;;;;;;23.95;11.52;;;7.20;99.90;;;;;;5066663;28;20045;-40
2023/03/20 03:29:12;;;;;;;19.73;10.80;;;7.10;99.90;;;;;;5066793;28;20040;-40
2023/03/20 03:31:39;;;;;;;21.50;10.77;;;7.20;99.90;;;;;;5066542;28;20055;-40
2023/03/20 03:34:07;;;;;;;23.90;10.07;;;8.60;99.90;;;;;;5066314;28;20589;-40
2023/03/20 03:36:32;;;;;;;25.42;10.65;;;8.10;99.90;;;;;;5066739;28;20124;-40
2023/03/20 03:39:14;;;;;;;18.27;9.88;;;7.10;99.90;;;;;;5066188;28;20460;-40
2023/03/20 03:42:04;;;;;;;21.33;9.77;;;7.20;99.90;;;;;;5066658;28;20044;-41
2023/03/20 03:44:54;;;;;;;20.38;10.32;;;8.00;99.90;;;;;;5065486;28;20079;-40
2023/03/20 03:47:32;;;;;;;24.13;9.88;;;7.20;99.90;;;;;;5047836;28;20055;-42
2023/03/20 03:50:03;;;;;;;20.95;9.85;;;7.20;99.90;;;;;;5065668;28;20068;-40
2023/03/20 03:52:30;;;;;;;19.35;9.82;;;8.30;99.90;;;;;;5066023;28;20049;-41
2023/03/20 03:55:07;;;;;;;18.80;9.98;;;7.70;99.90;;;;;;5065404;28;20056;-40
2023/03/20 03:57:44;;;;;;;18.85;10.48;;;7.20;99.90;;;;;;5065688;28;20052;-40
2023/03/20 04:00:14;;;;;;;21.23;9.85;;;7.20;99.90;;;;;;5066001;28;20046;-40
2023/03/20 04:02:42;;;;;;;19.75;9.68;;;7.20;99.90;;;;;;5069085;28;20079;-40
2023/03/20 04:05:09;;;;;;;19.05;9.13;;;7.40;99.90;;;;;;5069376;28;20137;-40
2023/03/20 04:07:35;;;;;;;18.45;9.98;;;7.00;99.90;;;;;;5069350;28;20053;-41
2023/03/20 04:10:01;;;;;;;19.45;9.23;;;7.30;99.90;;;;;;5069367;28;20040;-40
2023/03/20 04:12:31;;;;;;;19.40;9.90;;;7.20;99.90;;;;;;5069309;28;20040;-40
2023/03/20 04:14:56;;;;;;;19.70;9.60;;;7.90;99.90;;;;;;5069625;28;20044;-40
2023/03/20 04:17:22;;;;;;;17.83;9.85;;;7.20;99.90;;;;;;5035252;28;20115;-40
2023/03/20 04:19:48;;;;;;;20.10;10.25;;;7.70;99.90;;;;;;5069754;28;20052;-40
2023/03/20 04:22:13;;;;;;;21.58;10.73;;;7.20;99.90;;;;;;5069689;28;20524;-40
2023/03/20 04:24:39;;;;;;;16.88;9.65;;;8.00;99.90;;;;;;5051552;28;20075;-40
2023/03/20 04:27:05;;;;;;;17.95;9.80;;;7.00;99.90;;;;;;5061117;28;20055;-40
2023/03/20 04:29:30;;;;;;;17.67;10.77;;;7.80;99.90;;;;;;5069609;28;20045;-40
2023/03/20 04:31:56;;;;;;;17.13;9.40;;;7.40;99.90;;;;;;5069864;28;20040;-40
2023/03/20 04:34:22;;;;;;;20.00;9.77;;;7.00;99.90;;;;;;5069004;28;20055;-41
2023/03/20 04:36:47;;;;;;;15.73;9.32;;;7.20;99.90;;;;;;5069188;28;20059;-41
2023/03/20 04:39:13;;;;;;;19.40;8.70;;;7.60;99.90;;;;;;5068745;28;20044;-41
2023/03/20 04:41:39;;;;;;;14.80;9.23;;;8.00;99.90;;;;;;5068556;28;20114;-42
2023/03/20 04:44:05;;;;;;;16.30;9.43;;;7.90;99.90;;;;;;5068196;28;20488;-40
2023/03/20 04:46:31;;;;;;;16.92;9.73;;;7.10;99.90;;;;;;5034404;28;20052;-41
2023/03/20 04:48:56;;;;;;;15.50;9.95;;;7.80;99.90;;;;;;5068974;28;20407;-41
2023/03/20 04:51:22;;;;;;;16.25;8.80;;;7.00;99.90;;;;;;5069366;28;20049;-41
2023/03/20 04:53:48;;;;;;;18.85;9.77;;;7.80;99.90;;;;;;5069041;28;20056;-41
2023/03/20 04:56:13;;;;;;;15.45;9.68;;;7.30;99.90;;;;;;5068999;28;20043;-40
2023/03/20 04:58:39;;;;;;;14.65;8.70;;;7.70;99.90;;;;;;5068224;28;20043;-42
2023/03/20 05:01:05;;;;;;;18.20;8.23;;;6.90;99.90;;;;;;5069295;28;20056;-41
2023/03/20 05:03:30;;;;;;;15.93;8.77;;;7.10;99.90;;;;;;5069253;28;20041;-41
2023/03/20 05:05:56;;;;;;;17.00;8.32;;;7.00;99.90;;;;;;5068831;28;20430;-41
2023/03/20 05:08:22;;;;;;;15.27;8.48;;;7.10;99.90;;;;;;5068402;28;20055;-41
2023/03/20 05:10:47;;;;;;;12.63;7.70;;;8.00;99.90;;;;;;5068273;28;20042;-41
2023/03/20 05:13:13;;;;;;;12.30;8.23;;;7.60;99.90;;;;;;5066857;28;20048;-41
2023/03/20 05:15:39;;;;;;;17.40;7.95;;;7.70;99.90;;;;;;5068199;28;20041;-41
2023/03/20 05:18:04;;;;;;;15.55;7.85;;;7.00;99.90;;;;;;5068204;28;20048;-41
2023/03/20 05:20:31;;;;;;;15.07;8.07;;;6.90;99.90;;;;;;5068354;28;20075;-41
2023/03/20 05:22:56;;;;;;;15.82;7.47;;;6.80;99.90;;;;;;5067696;28;20114;-40
2023/03/20 05:25:22;;;;;;;14.32;7.85;;;7.10;99.90;;;;;;5067898;28;20076;-41
2023/03/20 05:27:48;;;;;;;19.15;7.47;;;7.20;99.90;;;;;;5067796;28;20036;-41
2023/03/20 05:30:14;;;;;;;12.75;6.90;;;6.80;99.90;;;;;;5067905;28;20040;-41
2023/03/20 05:32:40;;;;;;;15.60;7.38;;;6.90;99.90;;;;;;5067950;28;20040;-41
2023/03/20 05:35:08;;;;;;;13.60;6.85;;;7.40;99.90;;;;;;5068257;28;20056;-41
2023/03/20 05:37:33;;;;;;;13.73;7.15;;;7.00;99.90;;;;;;5050756;28;20080;-41
2023/03/20 05:39:59;;;;;;;15.32;6.88;;;7.00;99.90;;;;;;5067928;28;20625;-41
2023/03/20 05:42:24;;;;;;;12.95;7.07;;;8.50;99.90;;;;;;5068247;28;20375;-40
2023/03/20 05:44:50;;;;;;;14.02;6.50;;;7.90;99.90;;;;;;5068182;28;20058;-41
2023/03/20 05:47:16;;;;;;;13.93;7.07;;;7.00;99.90;;;;;;5067635;28;20692;-41
2023/03/20 05:49:41;;;;;;;12.18;6.50;;;7.00;99.90;;;;;;5067842;28;20642;-41
2023/03/20 05:52:07;;;;;;;14.50;7.32;;;7.10;99.90;;;;;;5067527;28;20486;-41
2023/03/20 05:54:33;;;;;;;9.93;6.78;;;8.50;99.90;;;;;;5066806;28;20521;-41
2023/03/20 05:56:58;;;;;;;13.43;6.63;;;7.40;99.90;;;;;;5066484;28;20052;-41
2023/03/20 05:59:24;;;;;;;15.20;7.07;;;9.50;99.90;;;;;;5067041;28;20061;-41
2023/03/20 06:01:50;;;;;;;13.48;7.57;;;8.00;99.90;;;;;;5067267;28;20045;-40
2023/03/20 06:04:16;;;;;;;14.23;7.97;;;6.80;99.90;;;;;;5067135;28;20052;-40
2023/03/20 06:06:41;;;;;;;15.80;7.82;;;7.00;99.90;;;;;;5067253;28;20060;-41
2023/03/20 06:09:07;;;;;;;12.27;7.38;;;7.50;99.90;;;;;;5067707;28;20040;-41
2023/03/20 06:11:33;;;;;;;15.07;7.85;;;7.00;99.90;;;;;;5066937;28;20036;-41
2023/03/20 06:13:59;;;;;;;17.48;8.00;;;8.40;99.90;;;;;;5049725;28;20040;-41
2023/03/20 06:16:25;;;;;;;13.55;7.90;;;8.20;99.90;;;;;;5066877;28;20045;-41
2023/03/20 06:18:51;;;;;;;16.15;7.97;;;6.90;99.90;;;;;;5066608;28;20562;-41
2023/03/20 06:21:17;;;;;;;13.02;7.20;;;8.60;99.90;;;;;;5066976;28;20059;-42
2023/03/20 06:23:42;;;;;;;16.63;7.78;;;7.10;99.90;;;;;;5066890;28;20074;-41
2023/03/20 06:26:08;;;;;;;11.88;7.63;;;6.90;99.90;;;;;;5067496;28;20043;-41
2023/03/20 06:28:34;;;;;;;15.00;8.10;;;8.50;99.90;;;;;;5048828;28;20036;-41
2023/03/20 06:31:00;;;;;;;17.40;8.63;;;7.90;99.90;;;;;;5067560;28;20048;-41
2023/03/20 06:33:25;;;;;;;16.70;8.73;;;7.80;99.90;;;;;;5066960;28;20084;-41
2023/03/20 06:35:51;;;;;;;15.93;8.32;;;7.60;99.90;;;;;;5049324;28;20119;-40
2023/03/20 06:38:17;;;;;;;16.00;8.35;;;7.20;99.90;;;;;;5066882;28;20147;-41
2023/03/20 06:40:44;;;;;;;16.95;9.05;;;8.10;99.90;;;;;;5067241;28;20090;-41
2023/03/20 06:43:11;;;;;;;14.60;8.27;;;7.40;99.90;;;;;;5031496;28;20048;-41
2023/03/20 06:45:37;;;;;;;16.73;10.15;;;7.40;99.90;;;;;;5066354;28;20051;-41
2023/03/20 06:48:08;;;;;;;17.20;8.50;;;7.40;99.90;;;;;;5066997;28;20458;-41
2023/03/20 06:50:33;;;;;;;14.77;9.65;;;7.50;99.90;;;;;;5066512;28;20045;-41
2023/03/20 06:52:59;;;;;;;14.38;9.23;;;7.50;99.90;;;;;;5066753;28;20868;-41
2023/03/20 06:55:25;;;;;;;15.07;9.18;;;7.90;99.90;;;;;;5065919;28;20064;-40
2023/03/20 06:57:50;;;;;;;15.10;9.02;;;7.90;99.90;;;;;;5047786;28;20060;-41
2023/03/20 07:00:16;;;;;;;15.68;9.20;;;7.60;99.90;;;;;;5066942;28;20067;-41
2023/03/20 07:02:42;;;;;;;14.07;8.98;;;7.60;99.90;;;;;;5066366;28;20513;-41
2023/03/20 07:05:09;;;;;;;19.05;9.23;;;7.90;99.90;;;;;;5066372;28;20080;-40
2023/03/20 07:07:35;;;;;;;15.98;8.75;;;7.90;99.90;;;;;;5065842;28;20502;-41
2023/03/20 07:10:01;;;;;;;17.00;9.70;;;7.70;99.90;;;;;;5066152;28;20067;-41
2023/03/20 07:12:27;;;;;;;13.32;8.70;;;7.90;99.90;;;;;;5065920;28;20530;-41
2023/03/20 07:14:54;;;;;;;15.60;8.98;;;8.50;99.90;;;;;;5066110;28;20440;-41
2023/03/20 07:17:21;;;;;;;16.10;8.35;;;7.80;99.90;;;;;;5066360;28;20045;-41
2023/03/20 07:19:47;;;;;;;15.07;9.07;;;7.90;99.90;;;;;;5066058;28;20090;-41
2023/03/20 07:22:24;;;;;;;13.73;8.13;;;7.70;99.90;;;;;;5066841;28;20068;-41
2023/03/20 07:24:50;;;;;;;13.60;8.20;;;8.20;99.90;;;;;;5066603;28;20055;-41
2023/03/20 07:27:16;;;;;;;12.45;8.00;;;8.60;99.90;;;;;;5066792;28;20045;-41
2023/03/20 07:29:42;;;;;;;14.02;8.27;;;8.00;99.90;;;;;;5066434;28;20090;-41
2023/03/20 07:32:08;;;;;;;14.85;7.65;;;8.10;99.90;;;;;;5066678;28;20040;-41
2023/03/20 07:34:35;;;;;;;17.95;7.78;;;8.20;99.90;;;;;;5066656;28;20048;-41
2023/03/20 07:37:01;;;;;;;13.38;8.40;;;8.30;99.90;;;;;;5069093;28;20123;-41
2023/03/20 07:39:26;;;;;;;13.10;7.10;;;8.30;99.90;;;;;;5070157;28;20136;-41
2023/03/20 07:41:52;;;;;;;11.60;7.50;;;7.90;99.90;;;;;;5070286;28;20048;-41
2023/03/20 07:44:18;;;;;;;13.30;7.28;;;8.40;99.90;;;;;;5070910;28;20047;-41
2023/03/20 07:46:48;;;;;;;13.82;7.53;;;8.50;99.90;;;;;;5070962;28;20036;-42
2023/03/20 07:49:17;;;;;;;12.90;7.90;;;8.40;99.90;;;;;;5070996;28;20394;-41
2023/03/20 07:51:43;;;;;;;13.32;7.25;;;8.50;99.90;;;;;;5070463;28;20040;-41
2023/03/20 07:54:09;;;;;;;12.73;7.47;;;9.40;99.90;;;;;;5070044;28;20070;-42
2023/03/20 07:56:34;;;;;;;10.88;6.75;;;8.80;99.90;;;;;;5069995;28;20119;-42
2023/03/20 07:59:00;;;;;;;11.63;7.15;;;9.60;99.90;;;;;;5069733;28;20059;-41
2023/03/20 08:01:26;;;;;;;13.18;6.53;;;9.20;99.90;;;;;;5069726;28;20036;-43
2023/03/20 08:03:52;;;;;;;11.50;7.20;;;9.30;99.90;;;;;;5049784;28;20067;-42
2023/03/20 08:06:17;;;;;;;18.08;7.38;;;9.10;99.90;;;;;;5069596;28;20072;-43
2023/03/20 08:08:43;;;;;;;14.93;7.38;;;9.30;99.90;;;;;;5051272;28;20036;-42
2023/03/20 08:11:10;;;;;;;15.77;7.68;;;9.50;99.90;;;;;;5068800;28;20090;-41
2023/03/20 08:13:36;;;;;;;13.57;7.22;;;9.10;99.90;;;;;;5068458;28;20055;-41
2023/03/20 08:16:02;;;;;;;12.23;6.90;;;9.10;99.90;;;;;;5068482;28;20399;-41
2023/03/20 08:18:28;;;;;;;11.70;7.20;;;9.00;99.90;;;;;;5067896;28;20044;-42
2023/03/20 08:20:54;;;;;;;15.82;6.95;;;9.00;99.90;;;;;;5068895;28;20048;-41
2023/03/20 08:23:20;;;;;;;12.95;6.82;;;9.00;99.90;;;;;;5069490;28;20777;-41
2023/03/20 08:25:50;;;;;;;13.45;6.68;;;9.40;99.90;;;;;;5068523;28;20625;-41
2023/03/20 08:28:17;;;;;;;14.73;7.82;;;9.40;99.90;;;;;;5068422;28;20040;-42
2023/03/20 08:30:43;;;;;;;14.35;7.53;;;9.60;99.90;;;;;;5068043;28;20040;-41
2023/03/20 08:33:09;;;;;;;13.10;6.68;;;9.80;99.90;;;;;;5069041;28;20044;-42
2023/03/20 08:35:36;;;;;;;17.08;8.32;;;10.20;99.90;;;;;;5068188;28;20556;-42
2023/03/20 08:38:02;;;;;;;13.43;7.10;;;10.20;99.90;;;;;;5050512;28;20087;-41
2023/03/20 08:40:28;;;;;;;12.23;6.78;;;10.20;99.90;;;;;;5068204;28;20037;-41
2023/03/20 08:42:54;;;;;;;11.90;7.10;;;10.40;99.90;;;;;;5068297;28;20048;-42
2023/03/20 08:45:20;;;;;;;11.80;6.07;;;10.60;99.90;;;;;;5068801;28;20123;-42
2023/03/20 08:47:49;;;;;;;11.75;6.43;;;11.10;99.90;;;;;;5067650;28;20128;-41
2023/03/20 08:50:15;;;;;;;12.20;6.45;;;11.50;99.90;;;;;;5068236;28;20079;-42
2023/03/20 08:52:43;;;;;;;13.32;6.90;;;11.60;99.90;;;;;;5068284;28;20119;-42
2023/03/20 08:55:13;;;;;;;11.30;6.30;;;11.70;99.90;;;;;;5068807;28;20056;-42
2023/03/20 08:57:40;;;;;;;11.00;6.03;;;11.80;99.90;;;;;;5068710;28;20048;-41
2023/03/20 09:00:07;;;;;;;10.82;5.50;;;11.70;99.90;;;;;;5068606;28;20036;-41
2023/03/20 09:02:32;;;;;;;10.82;5.65;;;11.80;99.90;;;;;;5068748;28;20947;-42
2023/03/20 09:04:58;;;;;;;13.10;6.15;;;12.40;99.90;;;;;;5066527;28;20143;-42
2023/03/20 09:07:24;;;;;;;11.60;5.88;;;12.20;99.90;;;;;;5067435;28;20131;-43
2023/03/20 09:09:50;;;;;;;13.57;5.95;;;12.50;99.90;;;;;;5068105;28;20043;-42
2023/03/20 09:12:15;;;;;;;9.98;5.38;;;12.30;99.90;;;;;;5067956;28;20037;-43
2023/03/20 09:14:41;;;;;;;11.63;5.10;;;12.40;99.90;;;;;;5068161;28;20356;-42
2023/03/20 09:17:07;;;;;;;11.88;5.50;;;12.70;99.90;;;;;;5067444;28;20039;-42
2023/03/20 09:19:33;;;;;;;13.02;6.10;;;12.70;99.90;;;;;;5067629;28;20052;-42
2023/03/20 09:21:59;;;;;;;8.90;5.65;;;12.90;99.90;;;;;;5067709;28;20046;-43
2023/03/20 09:24:25;;;;;;;10.60;6.13;;;13.10;99.90;;;;;;5067834;28;20040;-42
2023/03/20 09:26:51;;;;;;;9.60;5.22;;;13.30;99.90;;;;;;5045630;28;20670;-42
2023/03/20 09:29:17;;;;;;;11.98;5.10;;;13.30;99.90;;;;;;5063861;28;20047;-42
2023/03/20 09:31:42;;;;;;;10.95;6.10;;;13.40;99.90;;;;;;5046040;28;20041;-43
2023/03/20 09:34:09;;;;;;;10.90;5.32;;;13.30;99.90;;;;;;5063639;28;20059;-42
2023/03/20 09:36:34;;;;;;;10.68;5.70;;;13.60;99.90;;;;;;5063820;28;20623;-42
2023/03/20 09:39:00;;;;;;;11.52;6.07;;;14.20;99.90;;;;;;5063859;28;20060;-43
2023/03/20 09:41:27;;;;;;;11.27;5.60;;;14.10;99.90;;;;;;5063582;28;20086;-43
2023/03/20 09:44:16;;;;;;;9.65;4.80;;;14.40;99.90;;;;;;5062888;28;20558;-43
2023/03/20 09:47:09;;;;;;;12.57;5.63;;;15.10;99.90;;;;;;5064396;28;20032;-45
2023/03/20 09:49:45;;;;;;;10.00;5.50;;;15.50;99.90;;;;;;5064247;28;20098;-42
2023/03/20 09:52:31;;;;;;;9.95;5.55;;;15.60;99.90;;;;;;5063805;28;20049;-43
2023/03/20 09:55:14;;;;;;;9.20;4.90;;;16.10;99.90;;;;;;5063379;28;20067;-43
2023/03/20 09:57:53;;;;;;;9.15;6.07;;;16.10;99.90;;;;;;5063396;28;20048;-42
2023/03/20 10:00:27;;;;;;;9.70;4.30;;;16.00;99.90;;;;;;5063238;28;20110;-43
2023/03/20 10:03:16;;;;;;;11.20;4.95;;;15.80;99.90;;;;;;5063328;28;20055;-43
2023/03/20 10:06:00;;;;;;;11.00;5.00;;;15.60;99.90;;;;;;5063406;28;20127;-43
2023/03/20 10:08:35;;;;;;;9.40;4.93;;;15.40;98.20;;;;;;5062917;28;20048;-43
2023/03/20 10:11:38;;;;;;;11.32;5.85;;;15.10;98.70;;;;;;5063001;28;20051;-43
2023/03/20 10:14:20;;;;;;;8.90;4.68;;;14.70;97.60;;;;;;5044731;28;20099;-43
2023/03/20 10:16:58;;;;;;;8.48;4.82;;;14.30;98.10;;;;;;5063074;28;20045;-45
2023/03/20 10:19:28;;;;;;;8.35;4.97;;;12.80;98.00;;;;;;5063280;28;20056;-43
2023/03/20 10:22:13;;;;;;;9.20;4.22;;;13.80;99.00;;;;;;5059563;28;20137;-46
2023/03/20 10:24:44;;;;;;;10.52;4.97;;;13.60;96.30;;;;;;5052476;28;20049;-46
2023/03/20 10:27:42;;;;;;;10.20;4.60;;;13.70;97.00;;;;;;5034833;28;20048;-45
2023/03/20 10:30:25;;;;;;;9.45;5.22;;;13.10;97.20;;;;;;5059805;28;20211;-45
2023/03/20 10:33:06;;;;;;;10.68;5.40;;;13.00;98.50;;;;;;5043662;28;20087;-46
2023/03/20 10:35:44;;;;;;;11.68;4.90;;;12.90;99.50;;;;;;5047054;28;20494;-46
2023/03/20 10:38:16;;;;;;;9.27;4.85;;;13.20;99.70;;;;;;5064088;28;20804;-47
2023/03/20 10:40:43;;;;;;;9.88;5.20;;;12.90;99.40;;;;;;5046788;28;20068;-45
2023/03/20 10:43:19;;;;;;;10.82;5.93;;;12.60;98.00;;;;;;5064169;28;20475;-45
2023/03/20 10:45:49;;;;;;;12.32;5.80;;;12.50;98.60;;;;;;5064624;28;20470;-47
2023/03/20 10:48:30;;;;;;;10.18;5.57;;;12.30;98.90;;;;;;5064244;28;20048;-46
2023/03/20 10:50:59;;;;;;;9.70;5.15;;;12.10;99.50;;;;;;5028957;28;20082;-45
2023/03/20 10:53:30;;;;;;;14.38;6.85;;;12.20;99.90;;;;;;5046325;28;20036;-46
2023/03/20 10:56:01;;;;;;;14.18;6.38;;;11.90;99.90;;;;;;5065440;28;20071;-47
2023/03/20 10:58:31;;;;;;;14.00;6.82;;;11.70;99.90;;;;;;5064449;28;20040;-47
2023/03/20 11:00:58;;;;;;;12.23;6.18;;;11.60;99.90;;;;;;5029046;28;20481;-41
2023/03/20 11:03:29;;;;;;;14.25;7.03;;;11.50;99.90;;;;;;5063643;28;20041;-42
2023/03/20 11:06:27;;;;;;;13.77;6.17;;;11.20;99.90;;;;;;5046298;28;20037;-44
2023/03/20 11:08:54;;;;;;;8.98;6.00;;;11.10;99.90;;;;;;5047132;28;20287;-48
2023/03/20 11:11:29;;;;;;;13.65;6.50;;;11.00;99.90;;;;;;5064060;28;20040;-45
2023/03/20 11:13:55;;;;;;;14.85;7.70;;;10.80;99.90;;;;;;5063583;28;20060;-48
2023/03/20 11:16:25;;;;;;;14.82;8.10;;;11.00;99.90;;;;;;5064273;28;20371;-48
2023/03/20 11:18:52;;;;;;;11.40;6.38;;;11.00;99.90;;;;;;5064303;28;20078;-48
2023/03/20 11:21:28;;;;;;;14.20;6.75;;;11.20;99.90;;;;;;5064034;28;20527;-50
2023/03/20 11:23:54;;;;;;;11.30;6.97;;;11.10;99.90;;;;;;5041621;28;20052;-42
2023/03/20 11:26:38;;;;;;;12.95;6.38;;;11.10;99.90;;;;;;5063470;28;20475;-43
2023/03/20 11:29:06;;;;;;;13.93;5.78;;;11.00;99.90;;;;;;5062615;28;20127;-44
2023/03/20 11:31:37;;;;;;;10.05;5.88;;;11.10;99.90;;;;;;5063296;28;20035;-44
2023/03/20 11:34:03;;;;;;;13.23;7.30;;;11.60;99.90;;;;;;5064194;28;20094;-44
2023/03/20 11:36:32;;;;;;;12.70;6.53;;;11.00;99.90;;;;;;5063956;28;20563;-43
2023/03/20 11:39:09;;;;;;;12.82;6.20;;;11.00;99.90;;;;;;5063776;28;20644;-45
2023/03/20 11:41:45;;;;;;;13.82;5.90;;;11.10;99.90;;;;;;5064289;28;20048;-43
2023/03/20 11:44:21;;;;;;;12.00;6.10;;;11.20;99.90;;;;;;5064748;28;20435;-41
2023/03/20 11:47:04;;;;;;;14.05;6.35;;;10.70;99.90;;;;;;5064155;28;20487;-46
2023/03/20 11:49:32;;;;;;;14.88;6.40;;;10.60;99.90;;;;;;5063587;28;20106;-48
2023/03/20 11:52:21;;;;;;;11.57;5.88;;;11.00;99.90;;;;;;5062865;28;20068;-47
2023/03/20 11:54:51;;;;;;;9.88;4.80;;;11.00;99.90;;;;;;5063740;28;20080;-49
2023/03/20 11:57:39;;;;;;;10.65;4.22;;;10.70;99.90;;;;;;5064320;28;20106;-44
2023/03/20 12:00:33;;;;;;;12.02;5.18;;;10.60;99.90;;;;;;5065379;28;20123;-45
2023/03/20 12:02:59;;;;;;;9.50;4.38;;;10.60;99.90;;;;;;5063614;28;20486;-45
2023/03/20 12:05:39;;;;;;;10.25;4.78;;;10.70;99.90;;;;;;5065407;28;20056;-46
2023/03/20 12:08:14;;;;;;;8.43;4.10;;;10.70;99.90;;;;;;5062463;28;20036;-45
2023/03/20 12:10:50;;;;;;;9.38;3.72;;;10.80;99.90;;;;;;5045291;28;20132;-48
2023/03/20 12:13:32;;;;;;;10.05;4.55;;;10.20;99.90;;;;;;5061755;28;20045;-45
2023/03/20 12:16:04;;;;;;;9.60;4.43;;;10.40;99.90;;;;;;5063905;28;20039;-45
2023/03/20 12:18:37;;;;;;;8.93;3.20;;;10.10;99.90;;;;;;5063574;28;20046;-46
2023/03/20 12:21:30;;;;;;;7.50;3.40;;;10.70;99.90;;;;;;5063316;28;20119;-48
2023/03/20 12:24:12;;;;;;;8.95;4.40;;;10.00;99.90;;;;;;5047553;28;20075;-46
2023/03/20 12:27:05;;;;;;;8.43;4.57;;;10.10;99.90;;;;;;5067210;28;20036;-46
2023/03/20 12:29:49;;;;;;;10.35;4.63;;;10.40;99.90;;;;;;5048629;28;20071;-47
2023/03/20 12:32:55;;;;;;;8.27;4.55;;;10.10;99.90;;;;;;5067595;28;20513;-45
2023/03/20 12:35:30;;;;;;;9.57;4.55;;;10.30;99.90;;;;;;5000162;28;20432;-46
2023/03/20 12:38:25;;;;;;;9.68;4.13;;;10.20;99.90;;;;;;5066277;28;20106;-46
2023/03/20 12:40:56;;;;;;;7.60;3.78;;;10.20;99.90;;;;;;5068245;28;20166;-45
2023/03/20 12:43:27;;;;;;;11.13;4.50;;;10.20;99.90;;;;;;5070262;28;20116;-44
2023/03/20 12:46:08;;;;;;;8.57;3.08;;;10.20;99.90;;;;;;5069179;28;20032;-45
2023/03/20 12:48:42;;;;;;;6.18;3.05;;;10.20;99.90;;;;;;5050666;28;20120;-44
2023/03/20 12:51:17;;;;;;;11.45;3.75;;;10.00;99.90;;;;;;5067552;28;20604;-43
2023/03/20 12:54:09;;;;;;;6.65;3.15;;;9.90;99.90;;;;;;5049389;28;20079;-40
2023/03/20 12:57:00;;;;;;;8.05;3.25;;;10.00;99.90;;;;;;5068099;28;20070;-40
2023/03/20 12:59:35;;;;;;;7.18;3.17;;;9.80;99.90;;;;;;5068323;28;20371;-40
2023/03/20 13:02:14;;;;;;;8.02;2.85;;;9.80;99.90;;;;;;5067178;28;20936;-40
2023/03/20 13:04:56;;;;;;;5.93;2.50;;;9.80;99.90;;;;;;5067789;28;20129;-42